createdAt,value
2023-08-28T00:00:51.414Z,0.00
2023-08-28T00:01:51.412Z,0.00
2023-08-28T00:02:51.385Z,0.00
2023-08-28T00:03:51.395Z,0.00
2023-08-28T00:04:51.366Z,0.00
2023-08-28T00:05:51.339Z,0.00
2023-08-28T00:06:51.313Z,0.00
2023-08-28T00:07:51.293Z,0.00
2023-08-28T00:08:51.291Z,0.00
2023-08-28T00:09:51.292Z,0.00
2023-08-28T00:10:51.261Z,0.00
2023-08-28T00:11:51.276Z,0.00
2023-08-28T00:12:51.240Z,0.00
2023-08-28T00:13:51.202Z,0.00
2023-08-28T00:14:51.207Z,0.00
2023-08-28T00:15:51.197Z,0.00
2023-08-28T00:16:51.180Z,0.00
2023-08-28T00:17:51.234Z,0.00
2023-08-28T00:18:51.172Z,0.00
2023-08-28T00:19:51.141Z,0.00
2023-08-28T00:20:51.129Z,0.00
2023-08-28T00:21:51.112Z,0.00
2023-08-28T00:22:51.114Z,0.00
2023-08-28T00:23:51.106Z,0.00
2023-08-28T00:24:51.083Z,0.00
2023-08-28T00:25:51.067Z,0.00
2023-08-28T00:26:51.046Z,0.00
2023-08-28T00:27:51.043Z,0.00
2023-08-28T00:28:51.034Z,0.00
2023-08-28T00:29:51.004Z,0.00
2023-08-28T00:30:50.986Z,0.00
2023-08-28T00:31:51.025Z,0.00
2023-08-28T00:32:51.036Z,0.00
2023-08-28T00:33:50.988Z,0.00
2023-08-28T00:34:50.939Z,0.00
2023-08-28T00:35:50.962Z,0.00
2023-08-28T00:36:50.938Z,0.00
2023-08-28T00:37:50.916Z,0.00
2023-08-28T00:38:50.884Z,0.00
2023-08-28T00:39:50.868Z,0.00
2023-08-28T00:40:50.914Z,0.00
2023-08-28T00:41:50.868Z,0.00
2023-08-28T00:42:50.842Z,0.00
2023-08-28T00:43:50.830Z,0.00
2023-08-28T00:44:50.804Z,0.00
2023-08-28T00:45:50.862Z,0.00
2023-08-28T00:46:50.787Z,0.00
2023-08-28T00:47:50.811Z,0.00
2023-08-28T00:48:50.757Z,0.00
2023-08-28T00:49:50.730Z,0.00
2023-08-28T00:50:50.734Z,0.00
2023-08-28T00:51:50.722Z,0.00
2023-08-28T00:52:50.700Z,0.00
2023-08-28T00:53:50.687Z,0.00
2023-08-28T00:54:50.666Z,0.00
2023-08-28T00:55:50.678Z,0.00
2023-08-28T00:56:50.664Z,0.00
2023-08-28T00:57:50.690Z,0.00
2023-08-28T00:58:50.642Z,0.00
2023-08-28T00:59:50.607Z,0.00
2023-08-28T01:00:50.620Z,0.00
2023-08-28T01:01:50.574Z,0.00
2023-08-28T01:02:50.634Z,0.00
2023-08-28T01:03:50.554Z,0.00
2023-08-28T01:04:50.547Z,0.00
2023-08-28T01:05:50.541Z,0.00
2023-08-28T01:06:50.517Z,0.00
2023-08-28T01:07:50.491Z,0.00
2023-08-28T01:08:50.494Z,0.00
2023-08-28T01:09:50.474Z,0.00
2023-08-28T01:10:50.462Z,0.00
2023-08-28T01:11:50.442Z,0.00
2023-08-28T01:12:50.428Z,0.00
2023-08-28T01:13:50.436Z,0.00
2023-08-28T01:14:50.418Z,0.00
2023-08-28T01:15:50.510Z,0.00
2023-08-28T01:16:50.368Z,0.00
2023-08-28T01:17:50.468Z,0.00
2023-08-28T01:18:50.381Z,0.00
2023-08-28T01:19:50.342Z,0.00
2023-08-28T01:20:50.314Z,0.00
2023-08-28T01:21:50.306Z,0.00
2023-08-28T01:22:50.303Z,0.00
2023-08-28T01:23:50.282Z,0.00
2023-08-28T01:24:50.282Z,0.00
2023-08-28T01:25:50.271Z,0.00
2023-08-28T01:26:50.270Z,0.00
2023-08-28T01:27:50.228Z,0.00
2023-08-28T01:28:50.213Z,0.00
2023-08-28T01:29:50.182Z,0.00
2023-08-28T01:30:50.261Z,0.00
2023-08-28T01:31:50.268Z,0.00
2023-08-28T01:32:50.348Z,0.00
2023-08-28T01:33:50.236Z,0.00
2023-08-28T01:34:50.151Z,0.00
2023-08-28T01:35:50.117Z,0.00
2023-08-28T01:36:50.143Z,0.00
2023-08-28T01:37:50.150Z,0.00
2023-08-28T01:38:50.085Z,0.00
2023-08-28T01:39:50.064Z,0.00
2023-08-28T01:40:50.073Z,0.00
2023-08-28T01:41:50.038Z,0.00
2023-08-28T01:42:50.041Z,0.00
2023-08-28T01:43:50.024Z,0.00
2023-08-28T01:44:49.991Z,0.00
2023-08-28T01:45:49.986Z,0.00
2023-08-28T01:46:50.014Z,0.00
2023-08-28T01:47:50.025Z,0.00
2023-08-28T01:48:49.947Z,0.00
2023-08-28T01:49:49.918Z,0.00
2023-08-28T01:50:49.935Z,0.00
2023-08-28T01:51:49.935Z,0.00
2023-08-28T01:52:49.896Z,0.00
2023-08-28T01:53:49.895Z,0.00
2023-08-28T01:54:49.857Z,0.00
2023-08-28T01:55:49.829Z,0.00
2023-08-28T01:56:49.851Z,0.00
2023-08-28T01:57:49.819Z,0.00
2023-08-28T01:58:49.806Z,0.00
2023-08-28T01:59:49.780Z,0.00
2023-08-28T02:00:49.819Z,0.00
2023-08-28T02:01:49.819Z,0.00
2023-08-28T02:02:49.845Z,0.00
2023-08-28T02:03:49.737Z,0.00
2023-08-28T02:04:49.743Z,0.00
2023-08-28T02:05:49.731Z,0.00
2023-08-28T02:06:49.728Z,0.00
2023-08-28T02:07:49.686Z,0.00
2023-08-28T02:08:49.676Z,0.00
2023-08-28T02:09:49.679Z,0.00
2023-08-28T02:10:49.664Z,0.00
2023-08-28T02:11:49.644Z,0.00
2023-08-28T02:12:49.631Z,0.00
2023-08-28T02:13:49.598Z,0.00
2023-08-28T02:14:49.613Z,0.00
2023-08-28T02:15:49.580Z,0.00
2023-08-28T02:16:49.611Z,0.00
2023-08-28T02:17:49.567Z,0.00
2023-08-28T02:18:49.548Z,0.00
2023-08-28T02:19:49.533Z,0.00
2023-08-28T02:20:49.520Z,0.00
2023-08-28T02:21:49.501Z,0.00
2023-08-28T02:22:49.484Z,0.00
2023-08-28T02:23:49.464Z,0.00
2023-08-28T02:24:49.476Z,0.00
2023-08-28T02:25:49.444Z,0.00
2023-08-28T02:26:49.477Z,0.00
2023-08-28T02:27:49.434Z,0.00
2023-08-28T02:28:49.422Z,0.00
2023-08-28T02:29:49.395Z,0.00
2023-08-28T02:30:49.397Z,0.00
2023-08-28T02:31:49.387Z,0.00
2023-08-28T02:32:49.406Z,0.00
2023-08-28T02:33:49.347Z,0.00
2023-08-28T02:34:49.337Z,0.00
2023-08-28T02:35:49.302Z,0.00
2023-08-28T02:36:49.315Z,0.00
2023-08-28T02:37:49.284Z,0.00
2023-08-28T02:38:49.304Z,0.00
2023-08-28T02:39:49.269Z,0.00
2023-08-28T02:40:49.228Z,0.00
2023-08-28T02:41:49.232Z,0.00
2023-08-28T02:42:49.243Z,0.00
2023-08-28T02:43:49.213Z,0.00
2023-08-28T02:44:49.186Z,0.00
2023-08-28T02:45:49.183Z,0.00
2023-08-28T02:46:49.157Z,0.00
2023-08-28T02:47:49.222Z,0.00
2023-08-28T02:48:49.139Z,0.00
2023-08-28T02:49:49.118Z,0.00
2023-08-28T02:50:49.108Z,0.00
2023-08-28T02:51:49.092Z,0.00
2023-08-28T02:52:49.093Z,0.00
2023-08-28T02:53:49.067Z,0.00
2023-08-28T02:54:49.061Z,0.00
2023-08-28T02:55:49.046Z,0.00
2023-08-28T02:56:49.028Z,0.00
2023-08-28T02:57:49.024Z,0.00
2023-08-28T02:58:48.998Z,0.00
2023-08-28T02:59:48.996Z,0.00
2023-08-28T03:00:48.970Z,0.00
2023-08-28T03:01:49.023Z,0.00
2023-08-28T03:02:49.089Z,0.00
2023-08-28T03:03:48.953Z,0.00
2023-08-28T03:04:48.920Z,0.00
2023-08-28T03:05:48.913Z,0.00
2023-08-28T03:06:48.907Z,0.00
2023-08-28T03:07:48.888Z,0.00
2023-08-28T03:08:48.883Z,0.00
2023-08-28T03:09:48.860Z,0.00
2023-08-28T03:10:48.851Z,0.00
2023-08-28T03:11:48.834Z,0.00
2023-08-28T03:12:48.833Z,0.00
2023-08-28T03:13:48.807Z,0.00
2023-08-28T03:14:48.783Z,0.00
2023-08-28T03:15:48.778Z,0.00
2023-08-28T03:16:48.779Z,0.00
2023-08-28T03:17:48.817Z,0.00
2023-08-28T03:18:48.744Z,0.00
2023-08-28T03:19:48.722Z,0.00
2023-08-28T03:20:48.718Z,0.00
2023-08-28T03:21:48.717Z,0.00
2023-08-28T03:22:48.752Z,0.00
2023-08-28T03:23:48.664Z,0.00
2023-08-28T03:24:48.692Z,0.00
2023-08-28T03:25:48.646Z,0.00
2023-08-28T03:26:48.619Z,0.00
2023-08-28T03:27:48.620Z,0.00
2023-08-28T03:28:48.607Z,0.00
2023-08-28T03:29:48.589Z,0.00
2023-08-28T03:30:48.578Z,0.00
2023-08-28T03:31:48.633Z,0.00
2023-08-28T03:32:48.644Z,0.00
2023-08-28T03:33:48.522Z,0.00
2023-08-28T03:34:48.542Z,0.00
2023-08-28T03:35:48.495Z,0.00
2023-08-28T03:36:48.495Z,0.00
2023-08-28T03:37:48.473Z,0.00
2023-08-28T03:38:48.482Z,0.00
2023-08-28T03:39:48.455Z,0.00
2023-08-28T03:40:48.439Z,0.00
2023-08-28T03:41:48.433Z,0.00
2023-08-28T03:42:48.414Z,0.00
2023-08-28T03:43:48.440Z,0.00
2023-08-28T03:44:48.399Z,0.00
2023-08-28T03:45:48.388Z,0.00
2023-08-28T03:46:48.394Z,0.00
2023-08-28T03:47:48.397Z,0.00
2023-08-28T03:48:48.337Z,0.00
2023-08-28T03:49:48.328Z,0.00
2023-08-28T03:50:48.314Z,0.00
2023-08-28T03:51:48.302Z,0.00
2023-08-28T03:52:48.302Z,0.00
2023-08-28T03:53:48.265Z,4.00
2023-08-28T03:54:48.256Z,4.00
2023-08-28T03:55:48.242Z,4.00
2023-08-28T03:56:48.238Z,0.00
2023-08-28T03:57:48.226Z,0.00
2023-08-28T03:58:48.194Z,4.00
2023-08-28T03:59:48.180Z,0.00
2023-08-28T04:00:48.198Z,4.00
2023-08-28T04:01:48.234Z,4.00
2023-08-28T04:02:48.206Z,4.00
2023-08-28T04:03:48.159Z,4.00
2023-08-28T04:04:58.301Z,4.00
2023-08-28T04:05:49.118Z,4.00
2023-08-28T04:06:48.132Z,8.00
2023-08-28T04:07:48.084Z,8.00
2023-08-28T04:08:48.084Z,8.00
2023-08-28T04:09:48.043Z,8.00
2023-08-28T04:10:48.063Z,12.00
2023-08-28T04:11:48.040Z,12.00
2023-08-28T04:12:48.027Z,16.00
2023-08-28T04:13:48.024Z,16.00
2023-08-28T04:14:47.994Z,16.00
2023-08-28T04:15:50.648Z,24.00
2023-08-28T04:16:48.006Z,24.00
2023-08-28T04:17:47.975Z,28.00
2023-08-28T04:18:47.945Z,32.00
2023-08-28T04:19:47.913Z,36.00
2023-08-28T04:20:47.933Z,40.00
2023-08-28T04:21:47.910Z,44.00
2023-08-28T04:22:47.925Z,52.00
2023-08-28T04:23:47.869Z,56.00
2023-08-28T04:24:47.899Z,68.00
2023-08-28T04:25:47.868Z,76.00
2023-08-28T04:26:47.819Z,88.00
2023-08-28T04:27:47.837Z,104.00
2023-08-28T04:28:47.817Z,120.00
2023-08-28T04:29:47.837Z,140.00
2023-08-28T04:30:47.800Z,156.00
2023-08-28T04:31:47.818Z,180.00
2023-08-28T04:32:47.840Z,216.00
2023-08-28T04:33:47.730Z,256.00
2023-08-28T04:34:47.737Z,296.00
2023-08-28T04:35:47.714Z,340.00
2023-08-28T04:36:47.686Z,380.00
2023-08-28T04:37:47.700Z,420.00
2023-08-28T04:38:47.670Z,444.00
2023-08-28T04:39:47.680Z,460.00
2023-08-28T04:40:47.657Z,472.00
2023-08-28T04:41:47.629Z,460.00
2023-08-28T04:42:47.612Z,448.00
2023-08-28T04:43:47.637Z,428.00
2023-08-28T04:44:47.578Z,416.00
2023-08-28T04:45:47.658Z,408.00
2023-08-28T04:46:47.571Z,388.00
2023-08-28T04:47:47.720Z,380.00
2023-08-28T04:48:47.540Z,372.00
2023-08-28T04:49:47.527Z,364.00
2023-08-28T04:50:47.510Z,364.00
2023-08-28T04:51:47.529Z,356.00
2023-08-28T04:52:47.486Z,336.00
2023-08-28T04:53:47.503Z,316.00
2023-08-28T04:54:47.444Z,300.00
2023-08-28T04:55:47.440Z,300.00
2023-08-28T04:56:47.436Z,304.00
2023-08-28T04:57:47.447Z,312.00
2023-08-28T04:58:47.418Z,328.00
2023-08-28T04:59:47.398Z,348.00
2023-08-28T05:00:47.375Z,360.00
2023-08-28T05:01:47.386Z,392.00
2023-08-28T05:02:47.388Z,432.00
2023-08-28T05:03:47.372Z,472.00
2023-08-28T05:04:47.332Z,520.00
2023-08-28T05:05:47.309Z,564.00
2023-08-28T05:06:47.321Z,604.00
2023-08-28T05:07:47.287Z,644.00
2023-08-28T05:08:47.272Z,680.00
2023-08-28T05:09:47.280Z,700.00
2023-08-28T05:10:47.273Z,712.00
2023-08-28T05:11:47.258Z,712.00
2023-08-28T05:12:47.230Z,692.00
2023-08-28T05:13:47.217Z,640.00
2023-08-28T05:14:47.188Z,580.00
2023-08-28T05:15:47.272Z,536.00
2023-08-28T05:16:47.178Z,508.00
2023-08-28T05:17:47.185Z,488.00
2023-08-28T05:18:47.175Z,480.00
2023-08-28T05:19:47.139Z,484.00
2023-08-28T05:20:47.139Z,504.00
2023-08-28T05:21:47.104Z,524.00
2023-08-28T05:22:47.110Z,560.00
2023-08-28T05:23:47.109Z,596.00
2023-08-28T05:24:47.071Z,644.00
2023-08-28T05:25:47.075Z,700.00
2023-08-28T05:26:47.047Z,772.00
2023-08-28T05:27:47.216Z,832.00
2023-08-28T05:28:47.025Z,896.00
2023-08-28T05:29:47.020Z,944.00
2023-08-28T05:30:47.001Z,984.00
2023-08-28T05:31:46.991Z,1040.00
2023-08-28T05:32:46.977Z,1120.00
2023-08-28T05:33:46.973Z,1220.00
2023-08-28T05:34:47.905Z,1316.00
2023-08-28T05:35:46.927Z,1372.00
2023-08-28T05:36:46.904Z,1400.00
2023-08-28T05:37:46.887Z,1416.00
2023-08-28T05:38:46.873Z,1424.00
2023-08-28T05:39:46.891Z,1428.00
2023-08-28T05:40:46.858Z,1428.00
2023-08-28T05:41:46.848Z,1412.00
2023-08-28T05:42:46.826Z,1372.00
2023-08-28T05:43:46.832Z,1316.00
2023-08-28T05:44:46.831Z,1224.00
2023-08-28T05:45:46.801Z,1148.00
2023-08-28T05:46:46.848Z,1100.00
2023-08-28T05:47:46.819Z,1064.00
2023-08-28T05:48:46.783Z,1024.00
2023-08-28T05:49:46.736Z,976.00
2023-08-28T05:50:46.750Z,940.00
2023-08-28T05:51:46.703Z,908.00
2023-08-28T05:52:46.879Z,888.00
2023-08-28T05:53:46.722Z,888.00
2023-08-28T05:54:46.669Z,896.00
2023-08-28T05:55:46.676Z,896.00
2023-08-28T05:56:46.635Z,896.00
2023-08-28T05:57:46.633Z,896.00
2023-08-28T05:58:46.605Z,896.00
2023-08-28T05:59:46.807Z,904.00
2023-08-28T06:00:46.634Z,920.00
2023-08-28T06:01:46.555Z,932.00
2023-08-28T06:02:46.608Z,944.00
2023-08-28T06:03:46.613Z,956.00
2023-08-28T06:04:46.512Z,956.00
2023-08-28T06:05:46.519Z,956.00
2023-08-28T06:06:46.503Z,952.00
2023-08-28T06:07:46.497Z,956.00
2023-08-28T06:08:46.448Z,964.00
2023-08-28T06:09:46.499Z,976.00
2023-08-28T06:10:46.430Z,996.00
2023-08-28T06:11:46.447Z,1020.00
2023-08-28T06:12:46.464Z,1056.00
2023-08-28T06:13:46.392Z,1112.00
2023-08-28T06:14:46.383Z,1148.00
2023-08-28T06:15:46.380Z,1140.00
2023-08-28T06:16:46.397Z,1116.00
2023-08-28T06:17:46.401Z,1076.00
2023-08-28T06:18:46.328Z,1036.00
2023-08-28T06:19:46.310Z,1004.00
2023-08-28T06:20:46.296Z,976.00
2023-08-28T06:21:46.400Z,960.00
2023-08-28T06:22:46.285Z,924.00
2023-08-28T06:23:46.250Z,904.00
2023-08-28T06:24:46.244Z,888.00
2023-08-28T06:25:46.245Z,880.00
2023-08-28T06:26:46.222Z,868.00
2023-08-28T06:27:46.209Z,864.00
2023-08-28T06:28:46.183Z,844.00
2023-08-28T06:29:46.193Z,836.00
2023-08-28T06:30:46.205Z,836.00
2023-08-28T06:31:46.200Z,848.00
2023-08-28T06:32:46.176Z,860.00
2023-08-28T06:33:46.132Z,888.00
2023-08-28T06:34:46.166Z,924.00
2023-08-28T06:35:46.154Z,960.00
2023-08-28T06:36:46.084Z,1000.00
2023-08-28T06:37:46.064Z,1032.00
2023-08-28T06:38:46.058Z,1048.00
2023-08-28T06:39:46.057Z,1064.00
2023-08-28T06:40:46.023Z,1072.00
2023-08-28T06:41:46.033Z,1084.00
2023-08-28T06:42:46.016Z,1072.00
2023-08-28T06:43:46.020Z,1052.00
2023-08-28T06:44:45.992Z,1024.00
2023-08-28T06:45:46.049Z,984.00
2023-08-28T06:46:46.017Z,952.00
2023-08-28T06:47:45.994Z,916.00
2023-08-28T06:48:45.954Z,880.00
2023-08-28T06:49:45.920Z,852.00
2023-08-28T06:50:45.910Z,828.00
2023-08-28T06:51:45.888Z,812.00
2023-08-28T06:52:45.876Z,816.00
2023-08-28T06:53:45.866Z,828.00
2023-08-28T06:54:52.087Z,852.00
2023-08-28T06:55:46.833Z,888.00
2023-08-28T06:56:45.844Z,928.00
2023-08-28T06:57:45.840Z,968.00
2023-08-28T06:58:45.805Z,1008.00
2023-08-28T06:59:45.924Z,1044.00
2023-08-28T07:00:45.776Z,1084.00
2023-08-28T07:01:45.774Z,1144.00
2023-08-28T07:02:45.805Z,1220.00
2023-08-28T07:03:45.805Z,1300.00
2023-08-28T07:04:45.728Z,1352.00
2023-08-28T07:05:45.704Z,1404.00
2023-08-28T07:06:45.697Z,1460.00
2023-08-28T07:07:45.691Z,1568.00
2023-08-28T07:08:45.667Z,1676.00
2023-08-28T07:09:45.657Z,1800.00
2023-08-28T07:10:45.648Z,1900.00
2023-08-28T07:11:45.621Z,1960.00
2023-08-28T07:12:45.614Z,2020.00
2023-08-28T07:13:45.620Z,2112.00
2023-08-28T07:14:45.596Z,2136.00
2023-08-28T07:15:45.577Z,2000.00
2023-08-28T07:16:45.609Z,1948.00
2023-08-28T07:17:45.602Z,1860.00
2023-08-28T07:18:45.533Z,1796.00
2023-08-28T07:19:45.518Z,1848.00
2023-08-28T07:20:45.520Z,1752.00
2023-08-28T07:21:45.498Z,1692.00
2023-08-28T07:22:45.509Z,1656.00
2023-08-28T07:23:48.042Z,1672.00
2023-08-28T07:24:45.477Z,1720.00
2023-08-28T07:25:45.513Z,1712.00
2023-08-28T07:26:45.433Z,1720.00
2023-08-28T07:27:45.418Z,1680.00
2023-08-28T07:28:45.398Z,1656.00
2023-08-28T07:29:45.398Z,1640.00
2023-08-28T07:30:45.402Z,1572.00
2023-08-28T07:31:45.365Z,1536.00
2023-08-28T07:32:45.383Z,1444.00
2023-08-28T07:33:45.337Z,1364.00
2023-08-28T07:34:45.326Z,1320.00
2023-08-28T07:35:45.321Z,1284.00
2023-08-28T07:36:45.304Z,1248.00
2023-08-28T07:37:45.282Z,1212.00
2023-08-28T07:38:45.300Z,1184.00
2023-08-28T07:39:45.286Z,1164.00
2023-08-28T07:40:45.224Z,1148.00
2023-08-28T07:41:45.218Z,1144.00
2023-08-28T07:42:45.219Z,1144.00
2023-08-28T07:43:45.223Z,1148.00
2023-08-28T07:44:45.197Z,1156.00
2023-08-28T07:45:45.223Z,1164.00
2023-08-28T07:46:45.168Z,1172.00
2023-08-28T07:47:46.113Z,1172.00
2023-08-28T07:48:45.166Z,1176.00
2023-08-28T07:49:45.148Z,1172.00
2023-08-28T07:50:45.118Z,1168.00
2023-08-28T07:51:45.095Z,1160.00
2023-08-28T07:52:45.089Z,1148.00
2023-08-28T07:53:45.078Z,1136.00
2023-08-28T07:54:45.057Z,1124.00
2023-08-28T07:55:45.054Z,1116.00
2023-08-28T07:56:45.296Z,1112.00
2023-08-28T07:57:45.019Z,1116.00
2023-08-28T07:58:45.009Z,1120.00
2023-08-28T07:59:44.996Z,1132.00
2023-08-28T08:00:44.987Z,1140.00
2023-08-28T08:01:45.007Z,1156.00
2023-08-28T08:02:44.999Z,1180.00
2023-08-28T08:03:45.003Z,1204.00
2023-08-28T08:04:44.911Z,1240.00
2023-08-28T08:05:44.918Z,1280.00
2023-08-28T08:06:44.881Z,1320.00
2023-08-28T08:07:44.887Z,1368.00
2023-08-28T08:08:44.860Z,1408.00
2023-08-28T08:09:44.866Z,1444.00
2023-08-28T08:10:44.831Z,1476.00
2023-08-28T08:11:44.848Z,1508.00
2023-08-28T08:12:44.817Z,1536.00
2023-08-28T08:13:44.838Z,1552.00
2023-08-28T08:14:44.799Z,1564.00
2023-08-28T08:15:44.801Z,1568.00
2023-08-28T08:16:44.767Z,1564.00
2023-08-28T08:17:46.044Z,1560.00
2023-08-28T08:18:44.746Z,1548.00
2023-08-28T08:19:44.717Z,1540.00
2023-08-28T08:20:44.700Z,1532.00
2023-08-28T08:21:44.702Z,1524.00
2023-08-28T08:22:44.730Z,1516.00
2023-08-28T08:23:44.653Z,1524.00
2023-08-28T08:24:44.639Z,1532.00
2023-08-28T08:25:44.661Z,1552.00
2023-08-28T08:26:44.612Z,1564.00
2023-08-28T08:27:44.629Z,1584.00
2023-08-28T08:28:44.596Z,1612.00
2023-08-28T08:29:44.582Z,1636.00
2023-08-28T08:30:44.583Z,1652.00
2023-08-28T08:31:44.593Z,1664.00
2023-08-28T08:32:44.833Z,1676.00
2023-08-28T08:33:44.548Z,1676.00
2023-08-28T08:34:44.506Z,1676.00
2023-08-28T08:35:44.511Z,1668.00
2023-08-28T08:36:44.473Z,1652.00
2023-08-28T08:37:44.478Z,1648.00
2023-08-28T08:38:44.453Z,1644.00
2023-08-28T08:39:44.460Z,1620.00
2023-08-28T08:40:44.499Z,1588.00
2023-08-28T08:41:44.457Z,1544.00
2023-08-28T08:42:44.404Z,1512.00
2023-08-28T08:43:44.402Z,1488.00
2023-08-28T08:44:44.395Z,1476.00
2023-08-28T08:45:44.411Z,1476.00
2023-08-28T08:46:45.522Z,1484.00
2023-08-28T08:47:44.353Z,1492.00
2023-08-28T08:48:44.316Z,1512.00
2023-08-28T08:49:44.311Z,1528.00
2023-08-28T08:50:44.301Z,1548.00
2023-08-28T08:51:44.305Z,1568.00
2023-08-28T08:52:44.265Z,1584.00
2023-08-28T08:53:44.292Z,1592.00
2023-08-28T08:54:44.257Z,1596.00
2023-08-28T08:55:44.242Z,1596.00
2023-08-28T08:56:44.227Z,1588.00
2023-08-28T08:57:44.222Z,1580.00
2023-08-28T08:58:44.209Z,1560.00
2023-08-28T08:59:44.177Z,1544.00
2023-08-28T09:00:44.164Z,1528.00
2023-08-28T09:01:44.248Z,1528.00
2023-08-28T09:02:44.196Z,1544.00
2023-08-28T09:03:44.254Z,1564.00
2023-08-28T09:04:44.094Z,1584.00
2023-08-28T09:05:44.094Z,1616.00
2023-08-28T09:06:44.100Z,1652.00
2023-08-28T09:07:44.089Z,1688.00
2023-08-28T09:08:44.129Z,1724.00
2023-08-28T09:09:44.046Z,1764.00
2023-08-28T09:10:44.025Z,1808.00
2023-08-28T09:11:44.026Z,1844.00
2023-08-28T09:12:44.039Z,1880.00
2023-08-28T09:13:44.086Z,1908.00
2023-08-28T09:14:43.978Z,1916.00
2023-08-28T09:15:44.010Z,1916.00
2023-08-28T09:16:43.953Z,1908.00
2023-08-28T09:17:43.981Z,1892.00
2023-08-28T09:18:43.922Z,1892.00
2023-08-28T09:19:43.909Z,1900.00
2023-08-28T09:20:43.894Z,1912.00
2023-08-28T09:21:43.898Z,1924.00
2023-08-28T09:22:52.251Z,1944.00
2023-08-28T09:23:46.580Z,1972.00
2023-08-28T09:24:43.853Z,2000.00
2023-08-28T09:25:43.816Z,2036.00
2023-08-28T09:26:43.840Z,2072.00
2023-08-28T09:27:43.828Z,2124.00
2023-08-28T09:28:43.796Z,2180.00
2023-08-28T09:29:43.762Z,2220.00
2023-08-28T09:30:43.770Z,2252.00
2023-08-28T09:31:43.937Z,2288.00
2023-08-28T09:32:43.787Z,2320.00
2023-08-28T09:33:50.491Z,2360.00
2023-08-28T09:34:44.722Z,2392.00
2023-08-28T09:35:43.733Z,2424.00
2023-08-28T09:36:45.441Z,2444.00
2023-08-28T09:37:43.706Z,2456.00
2023-08-28T09:38:43.660Z,2452.00
2023-08-28T09:39:43.643Z,2444.00
2023-08-28T09:40:43.658Z,2436.00
2023-08-28T09:41:43.625Z,2432.00
2023-08-28T09:42:43.609Z,2428.00
2023-08-28T09:43:43.597Z,2428.00
2023-08-28T09:44:43.589Z,2424.00
2023-08-28T09:45:43.720Z,2416.00
2023-08-28T09:46:43.553Z,2412.00
2023-08-28T09:47:43.568Z,2400.00
2023-08-28T09:48:43.570Z,2376.00
2023-08-28T09:49:43.502Z,2352.00
2023-08-28T09:50:43.616Z,2336.00
2023-08-28T09:51:43.529Z,2332.00
2023-08-28T09:52:43.490Z,2340.00
2023-08-28T09:53:43.440Z,2340.00
2023-08-28T09:54:43.497Z,2348.00
2023-08-28T09:55:43.423Z,2360.00
2023-08-28T09:56:43.419Z,2372.00
2023-08-28T09:57:43.415Z,2388.00
2023-08-28T09:58:43.423Z,2396.00
2023-08-28T09:59:43.417Z,2412.00
2023-08-28T10:00:43.366Z,2412.00
2023-08-28T10:01:43.445Z,2396.00
2023-08-28T10:02:44.990Z,2376.00
2023-08-28T10:03:43.398Z,2352.00
2023-08-28T10:04:43.333Z,2304.00
2023-08-28T10:05:43.299Z,2256.00
2023-08-28T10:06:43.310Z,2184.00
2023-08-28T10:07:43.274Z,2100.00
2023-08-28T10:08:43.276Z,2036.00
2023-08-28T10:09:43.236Z,1992.00
2023-08-28T10:10:43.306Z,1968.00
2023-08-28T10:11:43.211Z,1968.00
2023-08-28T10:12:43.229Z,1960.00
2023-08-28T10:13:43.218Z,1952.00
2023-08-28T10:14:43.187Z,1928.00
2023-08-28T10:15:43.172Z,1884.00
2023-08-28T10:16:43.221Z,1824.00
2023-08-28T10:17:43.199Z,1764.00
2023-08-28T10:18:43.243Z,1712.00
2023-08-28T10:19:43.106Z,1684.00
2023-08-28T10:20:43.096Z,1660.00
2023-08-28T10:21:43.075Z,1644.00
2023-08-28T10:22:43.090Z,1640.00
2023-08-28T10:23:43.060Z,1640.00
2023-08-28T10:24:43.045Z,1648.00
2023-08-28T10:25:43.027Z,1656.00
2023-08-28T10:26:43.032Z,1672.00
2023-08-28T10:27:43.040Z,1680.00
2023-08-28T10:28:43.003Z,1688.00
2023-08-28T10:29:42.978Z,1692.00
2023-08-28T10:30:43.000Z,1704.00
2023-08-28T10:31:42.956Z,1716.00
2023-08-28T10:32:42.977Z,1704.00
2023-08-28T10:33:42.945Z,1676.00
2023-08-28T10:34:42.912Z,1632.00
2023-08-28T10:35:42.920Z,1588.00
2023-08-28T10:37:00.495Z,1540.00
2023-08-28T10:37:43.879Z,1492.00
2023-08-28T10:38:51.461Z,1448.00
2023-08-28T10:39:43.851Z,1408.00
2023-08-28T10:40:42.844Z,1368.00
2023-08-28T10:41:42.827Z,1336.00
2023-08-28T10:42:42.804Z,1304.00
2023-08-28T10:43:42.803Z,1280.00
2023-08-28T10:44:42.840Z,1264.00
2023-08-28T10:45:42.783Z,1256.00
2023-08-28T10:46:42.803Z,1240.00
2023-08-28T10:47:42.782Z,1220.00
2023-08-28T10:48:42.725Z,1200.00
2023-08-28T10:49:42.708Z,1180.00
2023-08-28T10:50:42.707Z,1164.00
2023-08-28T10:51:42.691Z,1148.00
2023-08-28T10:52:42.678Z,1132.00
2023-08-28T10:53:42.665Z,1116.00
2023-08-28T10:54:42.663Z,1104.00
2023-08-28T10:55:42.699Z,1100.00
2023-08-28T10:56:42.625Z,1096.00
2023-08-28T10:57:42.593Z,1096.00
2023-08-28T10:58:42.593Z,1096.00
2023-08-28T10:59:42.585Z,1104.00
2023-08-28T11:00:42.568Z,1108.00
2023-08-28T11:01:42.549Z,1116.00
2023-08-28T11:02:42.608Z,1128.00
2023-08-28T11:03:42.542Z,1132.00
2023-08-28T11:04:42.561Z,1144.00
2023-08-28T11:05:42.520Z,1156.00
2023-08-28T11:06:42.476Z,1168.00
2023-08-28T11:07:42.466Z,1172.00
2023-08-28T11:08:42.514Z,1176.00
2023-08-28T11:09:42.462Z,1172.00
2023-08-28T11:10:42.434Z,1172.00
2023-08-28T11:11:42.436Z,1164.00
2023-08-28T11:12:42.409Z,1160.00
2023-08-28T11:13:42.398Z,1160.00
2023-08-28T11:15:42.429Z,1176.00
2023-08-28T11:16:42.379Z,1192.00
2023-08-28T11:17:42.382Z,1212.00
2023-08-28T11:18:42.408Z,1232.00
2023-08-28T11:19:42.305Z,1256.00
2023-08-28T11:20:42.311Z,1276.00
2023-08-28T11:21:42.271Z,1304.00
2023-08-28T11:22:42.298Z,1336.00
2023-08-28T11:23:42.256Z,1368.00
2023-08-28T11:24:42.277Z,1396.00
2023-08-28T11:25:42.382Z,1428.00
2023-08-28T11:26:42.231Z,1468.00
2023-08-28T11:27:42.224Z,1508.00
2023-08-28T11:28:42.209Z,1552.00
2023-08-28T11:29:42.175Z,1592.00
2023-08-28T11:30:42.236Z,1628.00
2023-08-28T11:31:42.152Z,1664.00
2023-08-28T11:32:42.268Z,1692.00
2023-08-28T11:33:42.124Z,1716.00
2023-08-28T11:34:43.014Z,1748.00
2023-08-28T11:35:42.101Z,1768.00
2023-08-28T11:36:42.096Z,1776.00
2023-08-28T11:37:42.102Z,1780.00
2023-08-28T11:38:42.107Z,1768.00
2023-08-28T11:39:42.044Z,1760.00
2023-08-28T11:40:42.046Z,1748.00
2023-08-28T11:41:42.024Z,1724.00
2023-08-28T11:42:42.003Z,1692.00
2023-08-28T11:43:42.036Z,1656.00
2023-08-28T11:44:42.000Z,1616.00
2023-08-28T11:45:41.968Z,1580.00
2023-08-28T11:46:41.981Z,1540.00
2023-08-28T11:47:42.021Z,1504.00
2023-08-28T11:48:41.972Z,1472.00
2023-08-28T11:49:41.910Z,1440.00
2023-08-28T11:50:41.987Z,1416.00
2023-08-28T11:51:41.900Z,1400.00
2023-08-28T11:52:41.874Z,1388.00
2023-08-28T11:53:42.460Z,1376.00
2023-08-28T11:54:41.863Z,1364.00
2023-08-28T11:55:41.842Z,1352.00
2023-08-28T11:56:41.831Z,1336.00
2023-08-28T11:57:41.853Z,1316.00
2023-08-28T11:58:41.809Z,1292.00
2023-08-28T11:59:41.796Z,1264.00
2023-08-28T12:00:41.768Z,1244.00
2023-08-28T12:01:41.826Z,1228.00
2023-08-28T12:02:41.743Z,1220.00
2023-08-28T12:03:41.840Z,1216.00
2023-08-28T12:04:41.858Z,1220.00
2023-08-28T12:05:41.691Z,1216.00
2023-08-28T12:06:41.690Z,1220.00
2023-08-28T12:07:41.659Z,1212.00
2023-08-28T12:08:41.673Z,1216.00
2023-08-28T12:09:41.652Z,1224.00
2023-08-28T12:10:41.640Z,1244.00
2023-08-28T12:11:41.621Z,1280.00
2023-08-28T12:12:41.612Z,1336.00
2023-08-28T12:13:41.654Z,1404.00
2023-08-28T12:14:41.607Z,1476.00
2023-08-28T12:15:41.566Z,1548.00
2023-08-28T12:16:41.610Z,1620.00
2023-08-28T12:17:41.632Z,1676.00
2023-08-28T12:18:41.578Z,1716.00
2023-08-28T12:19:41.513Z,1744.00
2023-08-28T12:20:41.498Z,1760.00
2023-08-28T12:21:41.492Z,1764.00
2023-08-28T12:22:41.482Z,1760.00
2023-08-28T12:23:41.472Z,1756.00
2023-08-28T12:24:41.459Z,1756.00
2023-08-28T12:25:41.441Z,1740.00
2023-08-28T12:26:41.418Z,1728.00
2023-08-28T12:27:41.465Z,1704.00
2023-08-28T12:28:41.388Z,1692.00
2023-08-28T12:29:41.375Z,1672.00
2023-08-28T12:30:41.723Z,1660.00
2023-08-28T12:31:41.451Z,1656.00
2023-08-28T12:32:41.364Z,1648.00
2023-08-28T12:33:41.346Z,1640.00
2023-08-28T12:34:41.322Z,1628.00